Farden, Minnesota
Current Conditions -  °F | °C
As of 12:55 AM on Sunday 26 Oct 2014 (Local Time) from KY49 Reporting Station
Clear Clear  
Wind Chill: 40°   Ceiling: Unl
Heat Index: 40°   Visibility: 10mi
Dew Point: 24°   Wind: 3mph
Humidity: 52%   Direction: 280°W
Pressure: 30"   Gusts: NA
Location:  47.3012°N, 94.5426°W
Report Text: KY49 260555Z AUTO 28003KT 10SM CLR 05/M04 A3000 RMK AO2 T00461044 10095 20024 401370024
Loading
Personal Weather Stations






























Interactive Weather Map
Tropical Storm Tracking
New forecast layout! Learn more

10-Day Weather Forecast

Advertisements
Track Severe Weather on mobile